createdAt,value
2018-09-23T00:01:49.549Z,48.80
2018-09-23T00:04:18.431Z,48.60
2018-09-23T00:06:47.338Z,48.50
2018-09-23T00:09:16.207Z,48.40
2018-09-23T00:11:45.040Z,48.20
2018-09-23T00:14:13.906Z,48.10
2018-09-23T00:16:42.741Z,47.90
2018-09-23T00:19:11.607Z,47.90
2018-09-23T00:21:40.445Z,47.90
2018-09-23T00:24:09.318Z,48.00
2018-09-23T00:26:38.170Z,47.90
2018-09-23T00:29:07.194Z,47.90
2018-09-23T00:31:36.032Z,47.80
2018-09-23T00:34:04.939Z,47.80
2018-09-23T00:36:33.767Z,47.60
2018-09-23T00:39:02.623Z,47.60
2018-09-23T00:41:31.442Z,47.50
2018-09-23T00:44:00.308Z,47.50
2018-09-23T00:46:29.150Z,47.60
2018-09-23T00:48:58.008Z,47.60
2018-09-23T00:51:27.284Z,47.60
2018-09-23T00:53:56.169Z,47.50
2018-09-23T00:56:25.015Z,47.50
2018-09-23T00:58:54.002Z,47.50
2018-09-23T01:01:22.880Z,47.60
2018-09-23T01:03:51.768Z,47.60
2018-09-23T01:06:20.600Z,47.50
2018-09-23T01:08:49.477Z,47.50
2018-09-23T01:11:18.387Z,47.60
2018-09-23T01:13:47.259Z,47.60
2018-09-23T01:16:16.093Z,47.60
2018-09-23T01:18:44.994Z,47.60
2018-09-23T01:21:13.867Z,47.70
2018-09-23T01:23:42.774Z,47.80
2018-09-23T01:26:11.822Z,47.80
2018-09-23T01:28:40.678Z,47.90
2018-09-23T01:31:09.575Z,48.00
2018-09-23T01:33:38.413Z,48.10
2018-09-23T01:36:07.594Z,48.30
2018-09-23T01:38:36.431Z,48.30
2018-09-23T01:41:05.320Z,48.30
2018-09-23T01:43:34.247Z,48.40
2018-09-23T01:46:03.284Z,48.60
2018-09-23T01:48:32.179Z,48.70
2018-09-23T01:51:01.203Z,48.80
2018-09-23T01:53:30.091Z,49.00
2018-09-23T01:55:59.027Z,49.10
2018-09-23T01:58:27.887Z,49.20
2018-09-23T02:00:56.781Z,49.40
2018-09-23T02:03:25.630Z,49.60
2018-09-23T02:05:54.512Z,49.70
2018-09-23T02:08:23.487Z,49.60
2018-09-23T02:10:52.378Z,49.80
2018-09-23T02:13:21.252Z,50.70
2018-09-23T02:15:50.124Z,49.90
2018-09-23T02:18:18.986Z,50.30
2018-09-23T02:20:48.926Z,50.50
2018-09-23T02:23:17.773Z,50.60
2018-09-23T02:25:46.692Z,51.00
2018-09-23T02:28:15.583Z,50.90
2018-09-23T02:30:44.468Z,50.90
2018-09-23T02:33:13.294Z,51.10
2018-09-23T02:35:42.247Z,51.20
2018-09-23T02:38:11.085Z,51.20
2018-09-23T02:40:39.966Z,51.20
2018-09-23T02:43:08.809Z,51.50
2018-09-23T02:45:37.808Z,51.50
2018-09-23T02:48:07.044Z,51.90
2018-09-23T02:50:36.039Z,51.90
2018-09-23T02:53:04.889Z,51.90
2018-09-23T02:55:33.793Z,51.80
2018-09-23T02:58:02.635Z,51.80
2018-09-23T03:00:31.524Z,51.90
2018-09-23T03:03:00.378Z,52.00
2018-09-23T03:05:29.265Z,52.50
2018-09-23T03:07:58.106Z,52.50
2018-09-23T03:10:27.126Z,52.50
2018-09-23T03:12:56.012Z,52.40
2018-09-23T03:15:24.925Z,52.40
2018-09-23T03:17:53.865Z,52.40
2018-09-23T03:20:22.725Z,52.40
2018-09-23T03:22:51.628Z,52.50
2018-09-23T03:25:20.581Z,52.50
2018-09-23T03:27:49.484Z,52.60
2018-09-23T03:30:18.388Z,52.70
2018-09-23T03:32:47.274Z,52.90
2018-09-23T03:35:16.199Z,53.00
2018-09-23T03:37:45.065Z,52.90
2018-09-23T03:40:14.002Z,52.90
2018-09-23T03:42:43.082Z,53.00
2018-09-23T03:45:12.007Z,53.10
2018-09-23T03:47:40.867Z,53.20
2018-09-23T03:50:09.735Z,53.20
2018-09-23T03:52:38.624Z,53.50
2018-09-23T03:55:07.482Z,53.50
2018-09-23T03:57:36.386Z,53.50
2018-09-23T04:00:05.323Z,53.60
2018-09-23T04:02:34.312Z,53.60
2018-09-23T04:05:03.184Z,53.60
2018-09-23T04:07:32.079Z,53.80
2018-09-23T04:10:00.936Z,53.60
2018-09-23T04:12:29.913Z,54.00
2018-09-23T04:14:58.873Z,53.90
2018-09-23T04:17:27.777Z,53.90
2018-09-23T04:19:56.608Z,53.90
2018-09-23T04:22:25.503Z,54.00
2018-09-23T04:24:54.363Z,54.10
2018-09-23T04:27:23.297Z,54.20
2018-09-23T04:29:52.223Z,54.20
2018-09-23T04:32:21.278Z,54.30
2018-09-23T04:34:50.151Z,54.30
2018-09-23T04:37:19.036Z,54.20
2018-09-23T04:39:47.883Z,54.40
2018-09-23T04:42:16.785Z,54.40
2018-09-23T04:44:45.694Z,54.50
2018-09-23T04:47:14.611Z,54.50
2018-09-23T04:49:43.480Z,54.60
2018-09-23T04:52:12.415Z,54.50
2018-09-23T04:54:41.271Z,54.50
2018-09-23T04:57:10.163Z,54.60
2018-09-23T04:59:39.035Z,54.70
2018-09-23T05:02:07.954Z,54.90
2018-09-23T05:04:36.885Z,54.90
2018-09-23T05:07:05.812Z,55.10
2018-09-23T05:09:34.686Z,55.10
2018-09-23T05:12:03.718Z,55.30
2018-09-23T05:14:32.593Z,55.50
2018-09-23T05:17:01.603Z,55.60
2018-09-23T05:19:30.478Z,55.90
2018-09-23T05:21:59.516Z,56.10
2018-09-23T05:24:28.494Z,56.10
2018-09-23T05:26:57.592Z,56.30
2018-09-23T05:29:26.459Z,56.30
2018-09-23T05:31:55.407Z,56.30
2018-09-23T05:34:24.392Z,56.50
2018-09-23T05:36:53.568Z,56.80
2018-09-23T05:39:22.611Z,56.80
2018-09-23T05:41:52.196Z,56.80
2018-09-23T05:44:21.650Z,56.90
2018-09-23T05:46:51.141Z,57.20
2018-09-23T05:49:20.360Z,57.20
2018-09-23T05:51:49.547Z,57.40
2018-09-23T05:54:18.551Z,57.50
2018-09-23T05:56:47.711Z,57.60
2018-09-23T05:59:16.724Z,57.80
2018-09-23T06:01:45.715Z,57.90
2018-09-23T06:04:14.743Z,58.00
2018-09-23T06:06:43.925Z,57.90
2018-09-23T06:09:12.913Z,58.10
2018-09-23T06:11:41.883Z,58.20
2018-09-23T06:14:10.856Z,58.20
2018-09-23T06:16:39.784Z,58.50
2018-09-23T06:19:08.784Z,58.50
2018-09-23T06:21:37.685Z,58.60
2018-09-23T06:24:06.679Z,58.80
2018-09-23T06:26:35.679Z,59.70
2018-09-23T06:29:04.673Z,58.90
2018-09-23T06:31:33.650Z,59.10
2018-09-23T06:34:02.710Z,59.10
2018-09-23T06:36:31.708Z,59.30
2018-09-23T06:39:00.756Z,59.60
2018-09-23T06:41:29.987Z,59.50
2018-09-23T06:43:58.898Z,59.60
2018-09-23T06:46:27.750Z,59.70
2018-09-23T06:48:56.658Z,59.80
2018-09-23T06:51:25.535Z,59.90
2018-09-23T06:53:54.452Z,60.00
2018-09-23T06:56:23.331Z,60.00
2018-09-23T06:58:52.244Z,60.00
2018-09-23T07:01:21.111Z,60.10
2018-09-23T07:03:50.014Z,60.40
2018-09-23T07:06:18.883Z,60.50
2018-09-23T07:08:47.770Z,60.60
2018-09-23T07:11:16.640Z,60.70
2018-09-23T07:13:45.560Z,60.80
2018-09-23T07:16:14.546Z,60.70
2018-09-23T07:18:43.459Z,60.80
2018-09-23T07:21:12.319Z,61.00
2018-09-23T07:23:41.231Z,61.00
2018-09-23T07:26:10.141Z,61.10
2018-09-23T07:28:39.016Z,61.10
2018-09-23T07:31:08.104Z,61.30
2018-09-23T07:33:36.991Z,61.50
2018-09-23T07:36:05.835Z,61.70
2018-09-23T07:38:34.736Z,61.70
2018-09-23T07:41:03.600Z,62.00
2018-09-23T07:43:32.510Z,62.10
2018-09-23T07:46:01.369Z,62.30
2018-09-23T07:48:30.266Z,62.20
2018-09-23T07:50:59.148Z,62.10
2018-09-23T07:53:28.073Z,62.40
2018-09-23T07:55:56.939Z,62.60
2018-09-23T07:58:25.860Z,62.70
2018-09-23T08:00:54.817Z,62.60
2018-09-23T08:03:23.745Z,62.80
2018-09-23T08:05:52.591Z,63.00
2018-09-23T08:08:21.568Z,63.20
2018-09-23T08:10:50.520Z,63.20
2018-09-23T08:13:26.230Z,63.30
2018-09-23T08:15:54.983Z,63.50
2018-09-23T08:18:23.876Z,63.60
2018-09-23T08:20:52.773Z,63.70
2018-09-23T08:23:21.767Z,63.60
2018-09-23T08:25:50.643Z,63.70
2018-09-23T08:28:19.531Z,64.70
2018-09-23T08:30:48.504Z,63.90
2018-09-23T08:33:17.420Z,63.70
2018-09-23T08:35:46.287Z,64.10
2018-09-23T08:38:15.187Z,64.20
2018-09-23T08:40:44.087Z,64.10
2018-09-23T08:43:13.300Z,63.90
2018-09-23T08:45:42.205Z,64.20
2018-09-23T08:48:11.223Z,64.20
2018-09-23T08:50:40.189Z,64.30
2018-09-23T08:53:09.192Z,64.50
2018-09-23T08:55:38.099Z,64.40
2018-09-23T08:58:07.492Z,64.60
2018-09-23T09:00:36.412Z,65.00
2018-09-23T09:03:05.384Z,65.10
2018-09-23T09:05:34.312Z,65.40
2018-09-23T09:08:03.347Z,65.10
2018-09-23T09:10:32.255Z,64.80
2018-09-23T09:13:01.254Z,64.90
2018-09-23T09:15:34.018Z,64.90
2018-09-23T09:18:02.879Z,66.70
2018-09-23T09:20:31.873Z,65.50
2018-09-23T09:23:00.749Z,65.70
2018-09-23T09:25:29.739Z,65.60
2018-09-23T09:27:58.608Z,65.40
2018-09-23T09:30:27.513Z,65.50
2018-09-23T09:32:56.379Z,65.30
2018-09-23T09:35:25.403Z,65.60
2018-09-23T09:37:54.268Z,65.60
2018-09-23T09:40:23.250Z,65.80
2018-09-23T09:42:52.165Z,66.50
2018-09-23T09:45:21.092Z,65.30
2018-09-23T09:47:49.931Z,66.10
2018-09-23T09:50:18.848Z,65.40
2018-09-23T09:52:47.710Z,65.70
2018-09-23T09:55:16.620Z,66.80
2018-09-23T09:57:45.491Z,66.00
2018-09-23T10:00:18.035Z,66.40
2018-09-23T10:02:46.891Z,66.00
2018-09-23T10:05:15.779Z,66.40
2018-09-23T10:07:44.619Z,66.90
2018-09-23T10:10:13.527Z,66.60
2018-09-23T10:12:42.386Z,66.10
2018-09-23T10:15:11.335Z,66.10
2018-09-23T10:17:40.179Z,66.60
2018-09-23T10:20:09.107Z,66.20
2018-09-23T10:22:38.056Z,65.90
2018-09-23T10:25:07.432Z,66.10
2018-09-23T10:27:36.654Z,65.90
2018-09-23T10:30:06.724Z,66.20
2018-09-23T10:32:35.603Z,66.10
2018-09-23T10:35:04.651Z,66.60
2018-09-23T10:37:33.523Z,66.40
2018-09-23T10:40:02.923Z,65.90
2018-09-23T10:42:31.795Z,66.80
2018-09-23T10:45:00.698Z,66.80
2018-09-23T10:47:31.288Z,66.70
2018-09-23T10:50:00.210Z,66.40
2018-09-23T10:52:29.067Z,66.50
2018-09-23T10:54:57.944Z,66.50
2018-09-23T10:57:26.885Z,67.50
2018-09-23T10:59:55.988Z,66.90
2018-09-23T11:02:24.841Z,67.00
2018-09-23T11:04:53.755Z,67.10
2018-09-23T11:07:22.823Z,67.60
2018-09-23T11:09:51.740Z,67.10
2018-09-23T11:12:20.566Z,67.80
2018-09-23T11:17:31.328Z,67.60
2018-09-23T11:20:00.214Z,67.90
2018-09-23T11:22:29.279Z,68.00
2018-09-23T11:24:58.245Z,68.30
2018-09-23T11:27:27.039Z,67.90
2018-09-23T11:29:55.902Z,67.60
2018-09-23T11:32:24.821Z,67.60
2018-09-23T11:34:59.144Z,67.60
2018-09-23T11:37:28.075Z,67.50
2018-09-23T11:39:56.953Z,67.60
2018-09-23T11:42:25.835Z,67.60
2018-09-23T11:44:54.712Z,67.60
2018-09-23T11:47:23.623Z,67.60
2018-09-23T11:49:52.458Z,67.90
2018-09-23T11:52:21.374Z,67.80
2018-09-23T11:54:50.289Z,68.00
2018-09-23T11:57:19.228Z,68.80
2018-09-23T11:59:48.104Z,67.90
2018-09-23T12:02:17.130Z,68.20
2018-09-23T12:04:46.187Z,68.70
2018-09-23T12:07:15.095Z,68.40
2018-09-23T12:09:44.009Z,68.50
2018-09-23T12:12:12.923Z,68.40
2018-09-23T12:14:41.824Z,71.40
2018-09-23T12:17:10.765Z,70.20
2018-09-23T12:19:39.688Z,70.20
2018-09-23T12:22:08.652Z,69.60
2018-09-23T12:24:37.540Z,69.70
2018-09-23T12:27:06.524Z,69.20
2018-09-23T12:29:35.471Z,68.50
2018-09-23T12:32:04.404Z,68.40
2018-09-23T12:34:33.315Z,68.40
2018-09-23T12:37:02.319Z,68.20
2018-09-23T12:39:32.541Z,68.00
2018-09-23T12:42:02.590Z,68.40
2018-09-23T12:44:31.499Z,68.00
2018-09-23T12:47:00.432Z,67.90
2018-09-23T12:49:29.738Z,68.10
2018-09-23T12:51:59.032Z,67.80
2018-09-23T12:54:27.971Z,67.30
2018-09-23T12:56:56.875Z,67.40
2018-09-23T12:59:25.817Z,67.60
2018-09-23T13:01:54.711Z,67.80
2018-09-23T13:04:23.672Z,68.00
2018-09-23T13:06:53.668Z,68.50
2018-09-23T13:09:22.633Z,68.60
2018-09-23T13:11:51.560Z,68.60
2018-09-23T13:14:20.459Z,68.20
2018-09-23T13:16:49.515Z,67.50
2018-09-23T13:19:18.498Z,66.50
2018-09-23T13:21:47.477Z,66.20
2018-09-23T13:24:16.409Z,66.30
2018-09-23T13:26:45.347Z,65.90
2018-09-23T13:29:14.268Z,65.50
2018-09-23T13:31:43.266Z,65.30
2018-09-23T13:34:12.239Z,65.30
2018-09-23T13:36:41.190Z,65.30
2018-09-23T13:39:10.367Z,65.50
2018-09-23T13:41:43.779Z,65.50
2018-09-23T13:44:12.797Z,65.50
2018-09-23T13:46:41.830Z,65.50
2018-09-23T13:49:10.702Z,65.40
2018-09-23T13:51:39.763Z,65.90
2018-09-23T13:54:10.830Z,64.40
2018-09-23T13:56:39.941Z,63.70
2018-09-23T13:59:08.841Z,63.30
2018-09-23T14:01:37.882Z,62.40
2018-09-23T14:04:06.774Z,61.90
2018-09-23T14:06:35.777Z,61.50
2018-09-23T14:09:05.411Z,60.90
2018-09-23T14:11:34.325Z,60.00
2018-09-23T14:14:03.235Z,59.30
2018-09-23T14:16:38.732Z,59.10
2018-09-23T14:19:07.691Z,58.70
2018-09-23T14:21:36.570Z,58.90
2018-09-23T14:24:06.010Z,58.70
2018-09-23T14:26:34.948Z,58.80
2018-09-23T14:29:03.821Z,58.70
2018-09-23T14:31:32.851Z,58.30
2018-09-23T14:34:01.775Z,58.50
2018-09-23T14:36:31.594Z,58.30
2018-09-23T14:39:00.921Z,57.80
2018-09-23T14:41:30.028Z,57.60
2018-09-23T14:43:58.888Z,57.30
2018-09-23T14:46:27.796Z,57.10
2018-09-23T14:48:58.821Z,56.30
2018-09-23T14:51:27.712Z,56.60
2018-09-23T14:53:56.572Z,55.90
2018-09-23T14:56:25.497Z,55.70
2018-09-23T14:58:54.355Z,55.40
2018-09-23T15:01:23.279Z,55.60
2018-09-23T15:03:52.192Z,55.70
2018-09-23T15:06:21.159Z,55.30
2018-09-23T15:08:49.995Z,55.20
2018-09-23T15:11:19.223Z,54.60
2018-09-23T15:13:48.198Z,54.60
2018-09-23T15:16:17.064Z,54.50
2018-09-23T15:18:46.142Z,54.60
2018-09-23T15:21:15.053Z,54.70
2018-09-23T15:23:43.973Z,54.70
2018-09-23T15:26:12.876Z,55.00
2018-09-23T15:28:41.752Z,54.90
2018-09-23T15:31:10.636Z,54.80
2018-09-23T15:33:39.554Z,54.90
2018-09-23T15:36:08.499Z,54.70
2018-09-23T15:38:37.375Z,55.30
2018-09-23T15:41:07.003Z,55.00
2018-09-23T15:43:35.967Z,55.10
2018-09-23T15:46:04.818Z,55.20
2018-09-23T15:48:33.804Z,55.40
2018-09-23T15:51:02.627Z,55.40
2018-09-23T15:53:31.491Z,55.50
2018-09-23T15:56:00.350Z,55.50
2018-09-23T15:58:29.615Z,55.70
2018-09-23T16:00:58.460Z,55.90
2018-09-23T16:03:27.334Z,56.10
2018-09-23T16:05:56.194Z,56.40
2018-09-23T16:08:25.106Z,56.80
2018-09-23T16:10:54.544Z,57.40
2018-09-23T16:13:23.447Z,57.40
2018-09-23T16:15:52.391Z,57.60
2018-09-23T16:18:21.275Z,57.70
2018-09-23T16:20:50.159Z,58.50
2018-09-23T16:23:19.138Z,58.40
2018-09-23T16:25:48.035Z,58.90
2018-09-23T16:28:18.665Z,59.00
2018-09-23T16:30:50.220Z,58.30
2018-09-23T16:33:21.518Z,57.90
2018-09-23T16:35:51.072Z,57.60
2018-09-23T16:38:20.913Z,58.00
2018-09-23T16:40:49.800Z,57.70
2018-09-23T16:43:18.756Z,58.20
2018-09-23T16:45:47.930Z,58.50
2018-09-23T16:48:19.135Z,59.60
2018-09-23T16:50:48.635Z,59.10
2018-09-23T16:53:17.524Z,59.70
2018-09-23T16:55:46.456Z,60.00
2018-09-23T16:58:15.499Z,60.40
2018-09-23T17:00:44.631Z,60.60
2018-09-23T17:03:13.494Z,60.80
2018-09-23T17:05:42.415Z,61.00
2018-09-23T17:08:11.436Z,61.40
2018-09-23T17:10:40.345Z,61.60
2018-09-23T17:13:09.281Z,62.10
2018-09-23T17:15:38.224Z,62.10
2018-09-23T17:18:07.574Z,62.20
2018-09-23T17:20:36.435Z,62.40
2018-09-23T17:23:05.576Z,62.60
2018-09-23T17:25:34.745Z,62.90
2018-09-23T17:28:03.713Z,63.30
2018-09-23T17:30:32.643Z,63.40
2018-09-23T17:33:01.525Z,63.30
2018-09-23T17:35:30.434Z,63.50
2018-09-23T17:37:59.391Z,63.70
2018-09-23T17:40:28.349Z,63.80
2018-09-23T17:42:57.525Z,63.80
2018-09-23T17:45:26.573Z,63.90
2018-09-23T17:47:55.549Z,64.50
2018-09-23T17:50:24.609Z,64.20
2018-09-23T17:52:53.947Z,64.30
2018-09-23T17:55:23.031Z,64.30
2018-09-23T17:57:52.008Z,64.20
2018-09-23T18:00:21.343Z,64.30
2018-09-23T18:02:50.310Z,64.30
2018-09-23T18:05:19.271Z,64.40
2018-09-23T18:07:48.271Z,64.40
2018-09-23T18:10:17.882Z,65.10
2018-09-23T18:12:47.099Z,64.40
2018-09-23T18:15:16.193Z,64.60
2018-09-23T18:17:45.065Z,64.80
2018-09-23T18:20:14.005Z,64.80
2018-09-23T18:22:43.820Z,64.80
2018-09-23T18:25:15.228Z,64.60
2018-09-23T18:30:50.393Z,65.30
2018-09-23T18:33:21.908Z,65.50
2018-09-23T18:35:51.437Z,66.00
2018-09-23T18:38:20.709Z,65.60
2018-09-23T18:40:50.804Z,66.10
2018-09-23T18:43:19.686Z,65.10
2018-09-23T18:45:48.650Z,65.10
2018-09-23T18:48:17.544Z,65.10
2018-09-23T18:50:46.504Z,64.90
2018-09-23T18:53:20.492Z,65.00
2018-09-23T18:55:49.956Z,65.10
2018-09-23T18:58:18.826Z,65.00
2018-09-23T19:00:48.834Z,64.90
2018-09-23T19:03:17.878Z,64.70
2018-09-23T19:05:46.787Z,64.80
2018-09-23T19:08:15.828Z,64.80
2018-09-23T19:10:44.938Z,64.80
2018-09-23T19:13:19.052Z,64.80
2018-09-23T19:15:52.423Z,64.70
2018-09-23T19:18:21.449Z,64.60
2018-09-23T19:20:50.765Z,64.40
2018-09-23T19:23:19.801Z,64.40
2018-09-23T19:25:49.048Z,64.40
2018-09-23T19:28:18.170Z,64.10
2018-09-23T19:30:47.747Z,63.80
2018-09-23T19:33:16.844Z,63.70
2018-09-23T19:35:46.435Z,63.60
2018-09-23T19:38:15.485Z,63.60
2018-09-23T19:40:44.953Z,63.80
2018-09-23T19:43:14.194Z,64.10
2018-09-23T19:45:44.004Z,63.90
2018-09-23T19:48:13.678Z,63.80
2018-09-23T19:50:43.427Z,63.80
2018-09-23T19:53:12.899Z,63.90
2018-09-23T19:55:42.496Z,63.80
2018-09-23T19:58:11.380Z,63.80
2018-09-23T20:00:40.349Z,63.80
2018-09-23T20:03:09.300Z,63.80
2018-09-23T20:05:38.827Z,63.80
2018-09-23T20:08:08.221Z,63.90
2018-09-23T20:10:37.186Z,63.90
2018-09-23T20:13:06.314Z,63.90
2018-09-23T20:15:35.628Z,63.80
2018-09-23T20:18:04.666Z,63.70
2018-09-23T20:20:33.594Z,63.40
2018-09-23T20:23:02.963Z,63.10
2018-09-23T20:25:32.107Z,62.80
2018-09-23T20:28:01.012Z,62.80
2018-09-23T20:30:29.947Z,62.80
2018-09-23T20:32:58.850Z,62.80
2018-09-23T20:35:27.731Z,62.80
2018-09-23T20:37:56.628Z,62.60
2018-09-23T20:40:25.493Z,62.30
2018-09-23T20:42:54.388Z,62.30
2018-09-23T20:45:23.224Z,62.30
2018-09-23T20:47:55.737Z,62.30
2018-09-23T20:50:24.692Z,62.50
2018-09-23T20:52:53.569Z,62.50
2018-09-23T20:55:22.460Z,62.40
2018-09-23T20:57:51.349Z,62.30
2018-09-23T21:00:20.212Z,62.30
2018-09-23T21:02:49.244Z,62.20
2018-09-23T21:05:18.113Z,62.20
2018-09-23T21:07:47.096Z,62.30
2018-09-23T21:10:16.025Z,62.20
2018-09-23T21:12:45.223Z,63.20
2018-09-23T21:15:14.124Z,62.30
2018-09-23T21:17:43.212Z,62.30
2018-09-23T21:20:12.172Z,62.00
2018-09-23T21:22:41.071Z,62.10
2018-09-23T21:25:09.920Z,62.10
2018-09-23T21:27:38.857Z,62.00
2018-09-23T21:30:07.764Z,63.00
2018-09-23T21:32:36.646Z,61.20
2018-09-23T21:35:05.527Z,62.00
2018-09-23T21:37:34.428Z,62.00
2018-09-23T21:40:03.284Z,62.10
2018-09-23T21:42:32.167Z,62.00
2018-09-23T21:45:01.016Z,62.00
2018-09-23T21:47:29.904Z,62.00
2018-09-23T21:49:58.843Z,62.00
2018-09-23T21:52:27.742Z,62.00
2018-09-23T21:54:56.650Z,62.00
2018-09-23T21:57:25.530Z,62.90
2018-09-23T21:59:54.368Z,62.30
2018-09-23T22:02:23.265Z,62.00
2018-09-23T22:04:52.104Z,61.90
2018-09-23T22:07:20.997Z,61.90
2018-09-23T22:09:49.843Z,62.00
2018-09-23T22:12:18.755Z,61.90
2018-09-23T22:14:47.607Z,61.80
2018-09-23T22:17:16.487Z,62.00
2018-09-23T22:19:45.377Z,62.00
2018-09-23T22:22:14.340Z,62.10
2018-09-23T22:24:43.196Z,62.40
2018-09-23T22:27:12.064Z,62.00
2018-09-23T22:29:40.928Z,62.00
2018-09-23T22:32:09.845Z,61.80
2018-09-23T22:34:38.689Z,62.00
2018-09-23T22:37:07.606Z,61.60
2018-09-23T22:39:36.444Z,61.40
2018-09-23T22:42:05.308Z,61.10
2018-09-23T22:44:34.204Z,60.70
2018-09-23T22:47:03.043Z,60.70
2018-09-23T22:49:31.954Z,60.70
2018-09-23T22:52:00.807Z,61.30
2018-09-23T22:54:29.703Z,60.50
2018-09-23T22:56:58.547Z,60.40
2018-09-23T22:59:27.426Z,60.10
2018-09-23T23:01:56.267Z,60.00
2018-09-23T23:04:25.247Z,60.00
2018-09-23T23:06:54.084Z,59.80
2018-09-23T23:09:22.964Z,59.70
2018-09-23T23:11:52.865Z,59.70
2018-09-23T23:14:21.730Z,59.60
2018-09-23T23:16:50.574Z,59.50
2018-09-23T23:19:19.570Z,59.50
2018-09-23T23:21:48.452Z,59.60
2018-09-23T23:24:17.326Z,59.60
2018-09-23T23:26:46.193Z,59.60
2018-09-23T23:29:15.159Z,59.60
2018-09-23T23:31:44.042Z,59.50
2018-09-23T23:34:13.293Z,59.50
2018-09-23T23:36:42.127Z,59.60
2018-09-23T23:39:11.731Z,59.70
2018-09-23T23:41:40.768Z,59.90
2018-09-23T23:44:09.755Z,60.00
2018-09-23T23:46:38.926Z,60.10
2018-09-23T23:49:08.167Z,60.30
2018-09-23T23:51:37.335Z,60.30
2018-09-23T23:54:06.184Z,60.50
2018-09-23T23:56:35.062Z,60.40
2018-09-23T23:59:03.937Z,60.30
